Venta Maersk — OWHH2 — position and weather

sailwx.info

Track history (hours):
 
Tides and Currents Weather Stations Pressure Air Temp Water Temp Dewpoint Dewpoint Depression Visibility Wind Speed Wind Dir Waves Ship Positions

Venta Maersk

Last reported at 2018-Oct-21 11:59 UTC. Time now 2018-Oct-21 12:03 UTC.
Position N 57°17' E 008°11'.

Length 200 m; draft 11 m.

Type: Cargo ship. MMSI: 219115000.

Date/timePositionNaut miles runAvg speedWind from/ knotsBaromVisibWave heightAir tempDewpointWater temp
2018-Oct-21 11:59N 57°17' E 008°11'816.5
2018-Oct-21 11:30N 57°22' E 008°22'816.7
2018-Oct-21 11:03N 57°27' E 008°34'116.5
2018-Oct-21 11:00N 57°27' E 008°34'816.6
2018-Oct-21 10:30N 57°32' E 008°47'716.7
2018-Oct-21 10:03N 57°37' E 008°58'116.6
2018-Oct-21 10:00N 57°37' E 008°59'816.3
2018-Oct-21 09:30N 57°41' E 009°13'716.2
2018-Oct-21 09:03N 57°44' E 009°25'115.9
2018-Oct-21 09:00N 57°45' E 009°27'816.3
2018-Oct-21 08:30N 57°46' E 009°42'716.5
2018-Oct-21 08:03N 57°47' E 009°55'116.4
2018-Oct-21 08:00N 57°47' E 009°57'816.0
2018-Oct-21 07:30N 57°47' E 010°12'716.1
2018-Oct-21 07:03N 57°48' E 010°25'116.0
2018-Oct-21 07:00N 57°48' E 010°27'816.2
2018-Oct-21 06:30N 57°48' E 010°42'614.5
2018-Oct-21 06:03N 57°45' E 010°52'113.3
2018-Oct-21 06:00N 57°44' E 010°53'714.6
2018-Oct-21 05:30N 57°39' E 011°03'817.8
2018-Oct-21 05:04N 57°34' E 011°14'117.9
2018-Oct-21 05:00N 57°33' E 011°16'917.4
2018-Oct-21 04:30N 57°27' E 011°27'817.7
2018-Oct-21 04:04N 57°20' E 011°32'117.7
2018-Oct-21 04:00N 57°19' E 011°32'917.9
2018-Oct-21 03:30N 57°10' E 011°37'817.7
2018-Oct-21 03:03N 57°03' E 011°42'117.9
2018-Oct-21 03:00N 57°02' E 011°43'917.5
2018-Oct-21 02:30N 56°54' E 011°48'817.3
2018-Oct-21 02:02N 56°46' E 011°53'116.7
2018-Oct-21 01:58N 56°45' E 011°53'817.7
2018-Oct-21 01:30N 56°38' E 011°46'917.8
2018-Oct-21 00:59N 56°30' E 011°37'917.6
2018-Oct-21 00:27N 56°22' E 011°28'817.5
2018-Oct-20 23:58N 56°15' E 011°21'817.6
2018-Oct-20 23:30N 56°08' E 011°13'1417.8
2018-Oct-20 22:42N 55°56' E 010°59'3115.2
2018-Oct-20 20:38N 55°24' E 010°60'216.2
2018-Oct-20 20:30N 55°23' E 011°02'714.7
2018-Oct-20 20:03N 55°16' E 011°04'111.8
2018-Oct-20 20:00N 55°16' E 011°05'611.4
2018-Oct-20 19:30N 55°10' E 011°01'816.7
2018-Oct-20 19:03N 55°03' E 010°60'116.8
2018-Oct-20 19:01N 55°02' E 010°60'816.9
2018-Oct-20 18:31N 54°55' E 010°52'817.4
2018-Oct-20 18:03N 54°47' E 010°49'117.9
2018-Oct-20 18:00N 54°46' E 010°49'715.0
2018-Oct-20 17:31N 54°39' E 010°52'816.7
2018-Oct-20 17:03N 54°36' E 011°04'117.4
2018-Oct-20 17:01N 54°36' E 011°05'816.8
2018-Oct-20 16:30N 54°34' E 011°19'817.2
2018-Oct-20 16:03N 54°30' E 011°31'117.0
2018-Oct-20 16:00N 54°30' E 011°32'816.9
2018-Oct-20 15:30N 54°26' E 011°45'816.7
2018-Oct-20 15:03N 54°26' E 011°58'117.1
2018-Oct-20 15:01N 54°26' E 011°60'1212.9
2018-Oct-20 14:03N 54°34' E 012°15'0 9.8
2018-Oct-20 14:00N 54°35' E 012°16'6716.1
2018-Oct-20 09:53N 55°03' E 013°60'616.5
2018-Oct-20 09:30N 55°07' E 014°09'2517.0
2018-Oct-20 08:01N 55°26' E 014°37'016.8
2018-Oct-20 08:00N 55°26' E 014°38'816.5
2018-Oct-20 07:31N 55°30' E 014°50'716.6
2018-Oct-20 07:03N 55°33' E 015°02'116.7
2018-Oct-20 07:01N 55°34' E 015°04'917.1
2018-Oct-20 06:31N 55°38' E 015°17'817.3
2018-Oct-20 06:03N 55°42' E 015°29'117.1
2018-Oct-20 06:01N 55°42' E 015°30'917.5
2018-Oct-20 05:31N 55°47' E 015°43'817.3
2018-Oct-20 05:03N 55°51' E 015°55'117.7
2018-Oct-20 05:01N 55°51' E 015°56'917.5
2018-Oct-20 04:30N 55°56' E 016°10'817.4
2018-Oct-20 04:03N 55°60' E 016°22'117.5
2018-Oct-20 04:00N 56°00' E 016°24'917.3
2018-Oct-20 03:31N 56°05' E 016°36'817.2
2018-Oct-20 03:03N 56°10' E 016°47'117.2
2018-Oct-20 03:01N 56°10' E 016°49'917.2
2018-Oct-20 02:31N 56°15' E 017°01'817.4
2018-Oct-20 02:03N 56°20' E 017°12'117.3
2018-Oct-20 02:01N 56°21' E 017°13'917.4
2018-Oct-20 01:31N 56°26' E 017°26'817.1
2018-Oct-20 01:03N 56°31' E 017°37'217.0
2018-Oct-20 00:56N 56°32' E 017°40'1117.1
2018-Oct-20 00:18N 56°38' E 017°56'617.2
2018-Oct-19 23:55N 56°42' E 018°05'716.9
2018-Oct-19 23:30N 56°46' E 018°16'153 3.2
2018-Oct-17 23:21N 58°43' E 021°20'516.2
2018-Oct-17 23:03N 58°48' E 021°21'116.3
2018-Oct-17 23:00N 58°49' E 021°21'915.8
2018-Oct-17 22:26N 58°58' E 021°23'616.1
2018-Oct-17 22:03N 59°03' E 021°30'116.3
2018-Oct-17 22:00N 59°04' E 021°31'816.1
2018-Oct-17 21:30N 59°10' E 021°41'716.5
2018-Oct-17 21:03N 59°14' E 021°52'116.7
2018-Oct-17 21:00N 59°15' E 021°53'816.7
2018-Oct-17 20:30N 59°20' E 022°06'716.3
2018-Oct-17 20:03N 59°25' E 022°18'116.4
2018-Oct-17 20:00N 59°25' E 022°19'816.3
2018-Oct-17 19:30N 59°30' E 022°32'715.8
2018-Oct-17 19:03N 59°32' E 022°45'115.5
2018-Oct-17 19:00N 59°32' E 022°46'815.5
2018-Oct-17 18:30N 59°35' E 023°01'715.8
2018-Oct-17 18:03N 59°37' E 023°15'115.8
2018-Oct-17 18:00N 59°37' E 023°16'815.8
2018-Oct-17 17:30N 59°39' E 023°31'715.6
2018-Oct-17 17:03N 59°41' E 023°44'115.6
2018-Oct-17 17:00N 59°41' E 023°46'815.6
2018-Oct-17 16:30N 59°44' E 024°01'716.0
2018-Oct-17 16:03N 59°46' E 024°14'116.0
2018-Oct-17 16:00N 59°46' E 024°16'816.0
2018-Oct-17 15:30N 59°48' E 024°31'716.0
2018-Oct-17 15:03N 59°50' E 024°45'115.7
2018-Oct-17 15:00N 59°50' E 024°47'1616.1
2018-Oct-17 14:00N 59°53' E 025°18'816.0
2018-Oct-17 13:30N 59°54' E 025°34'716.1
2018-Oct-17 13:03N 59°56' E 025°48'116.3
2018-Oct-17 13:00N 59°56' E 025°49'815.9
2018-Oct-17 12:30N 59°58' E 026°05'716.1
2018-Oct-17 12:03N 60°03' E 026°16'115.7
2018-Oct-17 12:00N 60°03' E 026°18'816.0
2018-Oct-17 11:30N 60°08' E 026°30'613.2
2018-Oct-17 11:03N 60°12' E 026°40'116.3
2018-Oct-17 11:00N 60°12' E 026°41'815.6
2018-Oct-17 10:30N 60°17' E 026°53'715.4
2018-Oct-17 10:03N 60°24' E 026°54'111.2
2018-Oct-17 10:00N 60°25' E 026°54'1 1.1
2018-Oct-17 09:29N 60°25' E 026°55'0 0.0
2018-Oct-17 09:02N 60°25' E 026°55'0 0.0
2018-Oct-17 08:59N 60°25' E 026°55'0 0.0
2018-Oct-17 08:29N 60°25' E 026°55'0 0.0
2018-Oct-17 08:02N 60°25' E 026°55'0 0.2
2018-Oct-17 07:59N 60°25' E 026°55'0 0.0
2018-Oct-17 07:29N 60°25' E 026°55'0 0.0
2018-Oct-17 07:02N 60°25' E 026°55'0 0.0
2018-Oct-17 07:00N 60°25' E 026°55'0 0.0
2018-Oct-17 06:29N 60°25' E 026°55'0 0.0
2018-Oct-17 06:02N 60°25' E 026°55'0 0.0
2018-Oct-17 05:59N 60°25' E 026°55'0 0.0
2018-Oct-17 05:29N 60°25' E 026°55'0 0.0
2018-Oct-17 05:02N 60°25' E 026°55'0 0.0
2018-Oct-17 04:59N 60°25' E 026°55'0 0.0
2018-Oct-17 04:30N 60°25' E 026°55'0 0.0
2018-Oct-17 04:02N 60°25' E 026°55'0 0.0
2018-Oct-17 04:00N 60°25' E 026°55'0 0.0
2018-Oct-17 03:29N 60°25' E 026°55'0 0.0
2018-Oct-17 03:02N 60°25' E 026°55'0 0.0
2018-Oct-17 02:59N 60°25' E 026°55'0 0.0
2018-Oct-17 02:29N 60°25' E 026°55'0 0.0
2018-Oct-17 02:02N 60°25' E 026°55'0 0.2
2018-Oct-17 01:59N 60°25' E 026°55'0 0.0
2018-Oct-17 01:29N 60°25' E 026°55'0 0.0
2018-Oct-17 01:02N 60°25' E 026°55'0 0.0
2018-Oct-17 00:59N 60°25' E 026°55'0 0.0
2018-Oct-17 00:29N 60°25' E 026°55'0 0.0
2018-Oct-17 00:02N 60°25' E 026°55'0 0.0
2018-Oct-16 23:59N 60°25' E 026°55'0 0.0
2018-Oct-16 23:29N 60°25' E 026°55'0 0.0
2018-Oct-16 23:03N 60°25' E 026°55'0 0.0
2018-Oct-16 23:00N 60°25' E 026°55'0 0.0
2018-Oct-16 22:29N 60°25' E 026°55'0 0.0
2018-Oct-16 22:02N 60°25' E 026°55'0 0.0
2018-Oct-16 21:59N 60°25' E 026°55'0 0.0
2018-Oct-16 21:29N 60°25' E 026°55'0 0.0
2018-Oct-16 21:03N 60°25' E 026°55'0 0.0
2018-Oct-16 21:00N 60°25' E 026°55'0 0.0
2018-Oct-16 20:29N 60°25' E 026°55'0 0.0
2018-Oct-16 20:02N 60°25' E 026°55'0 0.0
2018-Oct-16 19:59N 60°25' E 026°55'0 0.0
2018-Oct-16 19:29N 60°25' E 026°55'0 0.0
2018-Oct-16 19:02N 60°25' E 026°55'0 0.0
2018-Oct-16 18:59N 60°25' E 026°55'0 0.0
2018-Oct-16 18:29N 60°25' E 026°55'0 0.0
2018-Oct-16 18:02N 60°25' E 026°55'0 0.0
2018-Oct-16 17:59N 60°25' E 026°55'0 0.0
2018-Oct-16 17:29N 60°25' E 026°55'0 0.0
2018-Oct-16 17:02N 60°25' E 026°55'0 0.0
2018-Oct-16 16:59N 60°25' E 026°55'0 0.0
2018-Oct-16 16:29N 60°25' E 026°55'0 0.0
2018-Oct-16 16:02N 60°25' E 026°55'0 0.0
2018-Oct-16 15:59N 60°25' E 026°55'0 0.0
2018-Oct-16 15:29N 60°25' E 026°55'0 0.0
2018-Oct-16 15:02N 60°25' E 026°55'0 0.1
2018-Oct-16 14:59N 60°25' E 026°55'0 0.0
2018-Oct-16 14:29N 60°25' E 026°55'0 0.0
2018-Oct-16 13:59N 60°25' E 026°55'0 0.0
2018-Oct-16 13:29N 60°25' E 026°55'0 0.0
2018-Oct-16 13:02N 60°25' E 026°55'0 0.1
2018-Oct-16 12:59N 60°25' E 026°55'0 0.0
2018-Oct-16 12:29N 60°25' E 026°55'0 0.0
2018-Oct-16 12:02N 60°25' E 026°55'0 0.1
2018-Oct-16 11:59N 60°25' E 026°55'0 0.0
2018-Oct-16 11:30N 60°25' E 026°55'0 0.6
2018-Oct-16 11:04N 60°25' E 026°55'0 0.0
2018-Oct-16 11:00N 60°25' E 026°55'0 0.0
2018-Oct-16 10:25N 60°25' E 026°55'0 0.0
2018-Oct-16 10:01N 60°25' E 026°55'0 0.1
2018-Oct-16 09:58N 60°25' E 026°55'0 0.0
2018-Oct-16 09:28N 60°25' E 026°55'0 0.0
2018-Oct-16 09:03N 60°25' E 026°55'0 0.2
2018-Oct-16 09:00N 60°25' E 026°55'0 0.0
2018-Oct-16 08:28N 60°25' E 026°55'0 0.0
2018-Oct-16 08:01N 60°25' E 026°55'0 0.0
2018-Oct-16 07:58N 60°25' E 026°55'0 0.0
2018-Oct-16 07:28N 60°25' E 026°55'0 0.0
2018-Oct-16 07:01N 60°25' E 026°55'0 0.0
2018-Oct-16 06:58N 60°25' E 026°55'0 0.0
2018-Oct-16 06:28N 60°25' E 026°55'0 0.0
2018-Oct-16 06:01N 60°25' E 026°55'0 0.2
2018-Oct-16 05:58N 60°25' E 026°55'0 0.0
2018-Oct-16 05:28N 60°25' E 026°55'0 0.0
2018-Oct-16 05:01N 60°25' E 026°55'0 0.0
2018-Oct-16 04:58N 60°25' E 026°55'0 0.0
2018-Oct-16 04:28N 60°25' E 026°55'0 0.0
2018-Oct-16 04:01N 60°25' E 026°55'0 0.0
2018-Oct-16 03:58N 60°25' E 026°55'0 0.0
2018-Oct-16 03:28N 60°25' E 026°55'0 0.0
2018-Oct-16 03:01N 60°25' E 026°55'0 0.0
2018-Oct-16 02:58N 60°25' E 026°55'0 0.0
2018-Oct-16 02:28N 60°25' E 026°55'0 0.0
2018-Oct-16 02:01N 60°25' E 026°55'0 0.0
2018-Oct-16 01:58N 60°25' E 026°55'0 0.0
2018-Oct-16 01:30N 60°25' E 026°55'0 0.0
2018-Oct-16 01:01N 60°25' E 026°55'0 0.0
2018-Oct-16 00:58N 60°25' E 026°55'0 0.0
2018-Oct-16 00:28N 60°25' E 026°55'0 0.0
2018-Oct-16 00:01N 60°25' E 026°55'0 0.0
2018-Oct-15 23:55N 60°25' E 026°55'0 0.0
2018-Oct-15 23:28N 60°25' E 026°55'0 0.0
2018-Oct-15 23:01N 60°25' E 026°55'0 0.0
2018-Oct-15 22:58N 60°25' E 026°55'0 0.0
2018-Oct-15 22:28N 60°25' E 026°55'0 0.0
2018-Oct-15 22:01N 60°25' E 026°55'0 0.0
2018-Oct-15 21:58N 60°25' E 026°55'0 0.0
2018-Oct-15 21:28N 60°25' E 026°55'0 0.0
2018-Oct-15 21:01N 60°25' E 026°55'0 0.1
2018-Oct-15 20:58N 60°25' E 026°55'0 0.0
2018-Oct-15 20:28N 60°25' E 026°55'0 0.0
2018-Oct-15 20:01N 60°25' E 026°55'0 0.0
2018-Oct-15 19:58N 60°25' E 026°55'0 0.0
2018-Oct-15 19:28N 60°25' E 026°55'0 0.0
2018-Oct-15 19:02N 60°25' E 026°55'0 0.0
2018-Oct-15 18:59N 60°25' E 026°55'0 0.0
2018-Oct-15 18:28N 60°25' E 026°55'0 0.0
2018-Oct-15 18:02N 60°25' E 026°55'0 0.0
2018-Oct-15 17:55N 60°25' E 026°55'0 0.0
2018-Oct-15 17:28N 60°25' E 026°55'0 0.0
2018-Oct-15 17:01N 60°25' E 026°55'0 0.0
2018-Oct-15 16:58N 60°25' E 026°55'0 0.0
2018-Oct-15 16:28N 60°25' E 026°55'0 0.0
2018-Oct-15 16:03N 60°25' E 026°55'0 0.0
2018-Oct-15 15:58N 60°25' E 026°55'0 0.0
2018-Oct-15 15:28N 60°25' E 026°55'0 0.0
2018-Oct-15 15:01N 60°25' E 026°55'0 0.0
2018-Oct-15 14:58N 60°25' E 026°55'0 0.0
2018-Oct-15 14:28N 60°25' E 026°55'0 0.0
2018-Oct-15 13:58N 60°25' E 026°55'0 0.0
2018-Oct-15 13:28N 60°25' E 026°55'0 0.0
2018-Oct-15 13:01N 60°25' E 026°55'0 0.0
2018-Oct-15 12:58N 60°25' E 026°55'0 0.0
2018-Oct-15 12:28N 60°25' E 026°55'0 0.0
2018-Oct-15 12:01N 60°25' E 026°55'0 0.0
2018-Oct-15 11:58N 60°25' E 026°55'0 0.0
2018-Oct-15 11:28N 60°25' E 026°55'0 0.0
2018-Oct-15 11:01N 60°25' E 026°55'0 0.0
2018-Oct-15 10:58N 60°25' E 026°55'0 0.0
2018-Oct-15 10:28N 60°25' E 026°55'0 0.0
2018-Oct-15 10:01N 60°25' E 026°55'0 0.0
2018-Oct-15 09:58N 60°25' E 026°55'0 0.0
2018-Oct-15 09:28N 60°25' E 026°55'0 0.0
2018-Oct-15 09:01N 60°25' E 026°55'0 0.0
2018-Oct-15 08:58N 60°25' E 026°55'0 0.0
2018-Oct-15 08:28N 60°25' E 026°55'0 0.0
2018-Oct-15 08:01N 60°25' E 026°55'0 0.0
2018-Oct-15 07:58N 60°25' E 026°55'0 0.0
2018-Oct-15 07:28N 60°25' E 026°55'0 0.0
2018-Oct-15 07:01N 60°25' E 026°55'0 0.0
2018-Oct-15 06:58N 60°25' E 026°55'0 0.0
2018-Oct-15 06:25N 60°25' E 026°55'0 0.0
2018-Oct-15 06:01N 60°25' E 026°55'0 0.0
2018-Oct-15 05:58N 60°25' E 026°55'0 0.0
2018-Oct-15 05:30N 60°25' E 026°55'0 0.0
2018-Oct-15 05:02N 60°25' E 026°55'0 0.0
2018-Oct-15 04:58N 60°25' E 026°55'0 0.0
2018-Oct-15 04:28N 60°25' E 026°55'0 0.0
2018-Oct-15 04:02N 60°25' E 026°55'0 0.0
2018-Oct-15 03:59N 60°25' E 026°55'0 0.0
2018-Oct-15 03:30N 60°25' E 026°55'0 0.0
2018-Oct-15 03:01N 60°25' E 026°55'0 0.0
2018-Oct-15 02:58N 60°25' E 026°55'0 0.0
2018-Oct-15 02:28N 60°25' E 026°55'0 0.0
2018-Oct-15 02:01N 60°25' E 026°55'0 0.0
2018-Oct-15 01:59N 60°25' E 026°55'0 0.2
2018-Oct-15 01:30N 60°25' E 026°55'2 4.4
2018-Oct-15 01:03N 60°24' E 026°52'114.0
2018-Oct-15 01:00N 60°24' E 026°51'815.6
2018-Oct-15 00:30N 60°20' E 026°37'715.6
2018-Oct-15 00:03N 60°15' E 026°26'112.1
2018-Oct-15 00:00N 60°15' E 026°26'4 8.3
2018-Oct-14 23:30N 60°11' E 026°22'4 9.4
2018-Oct-14 23:03N 60°07' E 026°17'1 9.4
2018-Oct-14 23:00N 60°07' E 026°16'812.2
2018-Oct-14 22:23N 60°01' E 026°07'515.4
2018-Oct-14 22:03N 59°57' E 026°01'115.3
2018-Oct-14 22:00N 59°57' E 025°60'714.6
2018-Oct-14 21:30N 59°52' E 025°48'715.8
2018-Oct-14 21:03N 59°50' E 025°35'115.9
2018-Oct-14 21:00N 59°50' E 025°33'815.8
2018-Oct-14 20:30N 59°48' E 025°18'715.8
2018-Oct-14 20:03N 59°47' E 025°04'115.7
2018-Oct-14 20:00N 59°47' E 025°02'815.8
2018-Oct-14 19:30N 59°46' E 024°46'716.2
2018-Oct-14 19:03N 59°45' E 024°32'113.8
2018-Oct-14 19:00N 59°45' E 024°31'918.3
2018-Oct-14 18:30N 59°42' E 024°13'818.2
2018-Oct-14 18:03N 59°40' E 023°58'118.3
2018-Oct-14 18:00N 59°40' E 023°56'918.5
2018-Oct-14 17:30N 59°36' E 023°39'818.7
2018-Oct-14 17:03N 59°34' E 023°23'118.6
2018-Oct-14 17:00N 59°34' E 023°22'918.5
2018-Oct-14 16:30N 59°31' E 023°04'818.5
2018-Oct-14 16:03N 59°28' E 022°49'118.3
2018-Oct-14 16:00N 59°28' E 022°47'918.0
2018-Oct-14 15:30N 59°24' E 022°31'818.3
2018-Oct-14 15:03N 59°18' E 022°19'118.1
2018-Oct-14 15:00N 59°18' E 022°18'918.2
2018-Oct-14 14:30N 59°12' E 022°04'918.5
2018-Oct-14 14:00N 59°06' E 021°50'1018.3
2018-Oct-14 13:28N 58°59' E 021°37'818.7
2018-Oct-14 13:03N 58°52' E 021°29'118.7
2018-Oct-14 13:00N 58°52' E 021°28'1018.6
2018-Oct-14 12:29N 58°43' E 021°17'818.7
2018-Oct-14 12:03N 58°37' E 021°09'118.7
2018-Oct-14 12:00N 58°36' E 021°08'918.6
2018-Oct-14 11:30N 58°29' E 020°58'818.5
2018-Oct-14 11:03N 58°22' E 020°49'118.5
2018-Oct-14 11:00N 58°21' E 020°48'918.6
2018-Oct-14 10:30N 58°13' E 020°39'5618.5
2018-Oct-14 07:28N 57°30' E 019°30'718.6
2018-Oct-14 07:03N 57°24' E 019°21'318.6
2018-Oct-14 06:53N 57°22' E 019°18'718.5
2018-Oct-14 06:30N 57°16' E 019°10'818.5
2018-Oct-14 06:03N 57°09' E 019°00'118.4
2018-Oct-14 06:00N 57°09' E 018°59'918.7
2018-Oct-14 05:30N 57°01' E 018°49'818.5
2018-Oct-14 05:03N 56°55' E 018°40'218.5
2018-Oct-14 04:57N 56°53' E 018°38'818.4
2018-Oct-14 04:30N 56°47' E 018°28'818.6
2018-Oct-14 04:03N 56°42' E 018°16'118.5
2018-Oct-14 04:00N 56°41' E 018°14'918.5
2018-Oct-14 03:30N 56°36' E 018°01'818.5
2018-Oct-14 03:03N 56°30' E 017°49'119.0
2018-Oct-14 03:00N 56°30' E 017°48'918.7
2018-Oct-14 02:30N 56°24' E 017°35'818.6
2018-Oct-14 02:03N 56°18' E 017°23'118.3
2018-Oct-14 02:00N 56°18' E 017°22'918.3
2018-Oct-14 01:30N 56°13' E 017°08'818.5
2018-Oct-14 01:03N 56°08' E 016°56'118.6
2018-Oct-14 01:00N 56°07' E 016°55'918.5
2018-Oct-14 00:30N 56°02' E 016°42'818.3
2018-Oct-14 00:03N 55°57' E 016°30'118.5
2018-Oct-14 00:00N 55°57' E 016°28'918.4
2018-Oct-13 23:30N 55°52' E 016°14'818.5
2018-Oct-13 23:03N 55°48' E 016°01'118.6
2018-Oct-13 23:00N 55°47' E 016°00'918.5
2018-Oct-13 22:30N 55°42' E 015°46'818.5
2018-Oct-13 22:03N 55°38' E 015°33'118.4
2018-Oct-13 22:00N 55°38' E 015°32'918.3
2018-Oct-13 21:30N 55°34' E 015°17'818.3
2018-Oct-13 21:03N 55°30' E 015°04'118.4
2018-Oct-13 21:00N 55°30' E 015°03'918.7
2018-Oct-13 20:30N 55°25' E 014°48'818.4
2018-Oct-13 20:03N 55°21' E 014°36'118.9
2018-Oct-13 20:00N 55°20' E 014°34'918.8
2018-Oct-13 19:30N 55°13' E 014°24'818.5
2018-Oct-13 19:03N 55°06' E 014°16'118.4
2018-Oct-13 19:00N 55°06' E 014°15'917.8
2018-Oct-13 18:30N 55°00' E 014°02'1118.6
2018-Oct-13 17:56N 54°57' E 013°44'3717.9
2018-Oct-13 15:51N 54°45' E 012°43'717.6
2018-Oct-13 15:28N 54°42' E 012°33'717.6
2018-Oct-13 15:03N 54°38' E 012°22'117.4
2018-Oct-13 15:00N 54°37' E 012°21'1417.3
2018-Oct-13 14:10N 54°25' E 012°09'317.4
2018-Oct-13 14:00N 54°24' E 012°05'917.2
2018-Oct-13 13:30N 54°25' E 011°50'816.8
2018-Oct-13 13:03N 54°28' E 011°38'116.8
2018-Oct-13 13:00N 54°28' E 011°36'816.5
2018-Oct-13 12:30N 54°32' E 011°24'716.3
2018-Oct-13 12:03N 54°34' E 011°12'116.6
2018-Oct-13 12:00N 54°35' E 011°11'816.3
2018-Oct-13 11:30N 54°36' E 010°57'716.6
2018-Oct-13 11:03N 54°40' E 010°46'115.4
2018-Oct-13 11:00N 54°41' E 010°46'511.0
2018-Oct-13 10:31N 54°46' E 010°49'714.8
2018-Oct-13 10:04N 54°53' E 010°50'114.6
2018-Oct-13 10:01N 54°54' E 010°51'714.0
2018-Oct-13 09:31N 54°59' E 010°59'715.5
2018-Oct-13 09:04N 55°05' E 011°02'115.8
2018-Oct-13 09:01N 55°06' E 011°02'815.3
2018-Oct-13 08:31N 55°14' E 011°06'716.1
2018-Oct-13 08:03N 55°20' E 011°02'115.7
2018-Oct-13 08:01N 55°21' E 011°02'4613.4
2018-Oct-13 04:33N 56°07' E 011°10'1214.4
2018-Oct-13 03:44N 56°17' E 011°22'1114.6
2018-Oct-13 02:58N 56°27' E 011°32'714.8
2018-Oct-13 02:31N 56°32' E 011°38'714.8
2018-Oct-13 02:03N 56°38' E 011°45'114.8
2018-Oct-13 02:01N 56°39' E 011°46'714.3
2018-Oct-13 01:31N 56°45' E 011°52'714.9
2018-Oct-13 01:04N 56°52' E 011°48'114.9
2018-Oct-13 01:00N 56°52' E 011°48'714.9
2018-Oct-13 00:31N 56°59' E 011°43'715.1
2018-Oct-13 00:04N 57°05' E 011°38'114.9
2018-Oct-13 00:00N 57°06' E 011°37'714.4
2018-Oct-12 23:31N 57°13' E 011°34'714.8
2018-Oct-12 23:04N 57°19' E 011°30'114.8
2018-Oct-12 23:01N 57°20' E 011°29'715.0
2018-Oct-12 22:31N 57°27' E 011°25'715.1
2018-Oct-12 22:04N 57°32' E 011°16'115.2
2018-Oct-12 22:01N 57°32' E 011°15'815.1
2018-Oct-12 21:31N 57°38' E 011°05'715.2
2018-Oct-12 21:04N 57°42' E 010°55'115.6
2018-Oct-12 21:01N 57°43' E 010°54'714.7
2018-Oct-12 20:31N 57°46' E 010°42'715.5
2018-Oct-12 20:03N 57°46' E 010°29'115.8
2018-Oct-12 20:00N 57°46' E 010°28'815.5
2018-Oct-12 19:31N 57°46' E 010°13'715.5
2018-Oct-12 19:04N 57°45' E 010°00'115.7
2018-Oct-12 19:01N 57°45' E 009°59'816.1
2018-Oct-12 18:30N 57°45' E 009°43'716.1
2018-Oct-12 18:04N 57°44' E 009°30'116.6
2018-Oct-12 18:00N 57°44' E 009°28'816.3
2018-Oct-12 17:30N 57°41' E 009°14'716.2
2018-Oct-12 17:03N 57°37' E 009°02'116.2
2018-Oct-12 17:00N 57°37' E 009°01'816.3
2018-Oct-12 16:30N 57°33' E 008°48'716.5
2018-Oct-12 16:03N 57°28' E 008°37'116.7
2018-Oct-12 16:00N 57°28' E 008°35'816.7
2018-Oct-12 15:30N 57°23' E 008°23'816.7
2018-Oct-12 15:02N 57°18' E 008°12'116.8
2018-Oct-12 15:00N 57°17' E 008°11'816.5
2018-Oct-12 14:30N 57°11' E 008°01'816.5
2018-Oct-12 14:00N 57°04' E 007°53'816.6
2018-Oct-12 13:30N 56°57' E 007°46'716.4
2018-Oct-12 13:03N 56°50' E 007°40'116.4
2018-Oct-12 13:01N 56°50' E 007°40'816.5
2018-Oct-12 12:30N 56°42' E 007°33'816.4
2018-Oct-12 12:03N 56°35' E 007°27'116.5
2018-Oct-12 12:00N 56°35' E 007°26'816.3
2018-Oct-12 11:30N 56°27' E 007°19'716.3
2018-Oct-12 11:03N 56°21' E 007°14'116.3
2018-Oct-12 11:00N 56°20' E 007°13'816.3
2018-Oct-12 10:30N 56°13' E 007°06'1116.4
2018-Oct-12 09:48N 56°03' E 006°56'15817.5
2018-Oct-12 00:44N 53°41' E 004°53'517.5
2018-Oct-12 00:27N 53°37' E 004°50'717.4
2018-Oct-12 00:04N 53°30' E 004°46'117.3
2018-Oct-12 00:00N 53°30' E 004°45'917.3
2018-Oct-11 23:31N 53°22' E 004°39'817.2
2018-Oct-11 23:04N 53°15' E 004°34'117.4
2018-Oct-11 23:01N 53°14' E 004°33'917.2
2018-Oct-11 22:31N 53°06' E 004°27'817.0
2018-Oct-11 22:04N 52°60' E 004°21'116.9
2018-Oct-11 22:01N 52°59' E 004°20'816.9
2018-Oct-11 21:30N 52°51' E 004°14'817.1
2018-Oct-11 21:04N 52°45' E 004°06'117.2
2018-Oct-11 21:01N 52°45' E 004°05'917.2
2018-Oct-11 20:31N 52°39' E 003°55'817.4
2018-Oct-11 20:04N 52°32' E 003°47'117.8
2018-Oct-11 20:01N 52°32' E 003°46'917.7
2018-Oct-11 19:30N 52°25' E 003°37'818.0
2018-Oct-11 19:03N 52°20' E 003°27'118.1
2018-Oct-11 19:01N 52°19' E 003°26'918.2
2018-Oct-11 18:29N 52°12' E 003°15'818.5
2018-Oct-11 18:03N 52°06' E 003°06'118.6
2018-Oct-11 18:00N 52°06' E 003°05'1918.7
2018-Oct-11 17:00N 51°53' E 002°42'713.9
2018-Oct-11 16:31N 51°52' E 002°31'817.5
2018-Oct-11 16:03N 51°53' E 002°19'118.2
2018-Oct-11 16:01N 51°53' E 002°17'918.7
2018-Oct-11 15:31N 51°51' E 002°02'818.6
2018-Oct-11 15:04N 51°48' E 001°49'117.5
2018-Oct-11 15:01N 51°49' E 001°48'815.1
2018-Oct-11 14:30N 51°52' E 001°37'5 9.7
2018-Oct-11 14:01N 51°56' E 001°33'815.8
2018-Oct-11 13:30N 51°55' E 001°20'3 5.4
2018-Oct-11 13:02N 51°58' E 001°18'0 0.3
2018-Oct-11 12:59N 51°58' E 001°18'0 0.0
2018-Oct-11 12:29N 51°58' E 001°18'0 0.0
2018-Oct-11 12:02N 51°58' E 001°18'  
Track history (hours):
 
Tides and Currents Weather Stations Pressure Air Temp Water Temp Dewpoint Dewpoint Depression Visibility Wind Speed Wind Dir Waves Ship Positions

Venta Maersk

Last reported at 2018-Oct-21 11:59 UTC. Time now 2018-Oct-21 12:03 UTC.
Position N 57°17' E 008°11'.

Length 200 m; draft 11 m.

Type: Cargo ship. MMSI: 219115000.

Date/timePositionNaut miles runAvg speedWind from/ knotsBaromVisibWave heightAir tempDewpointWater temp
2018-Oct-21 11:59N 57°17' E 008°11'816.5
2018-Oct-21 11:30N 57°22' E 008°22'816.7
2018-Oct-21 11:03N 57°27' E 008°34'116.5
2018-Oct-21 11:00N 57°27' E 008°34'816.6
2018-Oct-21 10:30N 57°32' E 008°47'716.7
2018-Oct-21 10:03N 57°37' E 008°58'116.6
2018-Oct-21 10:00N 57°37' E 008°59'816.3
2018-Oct-21 09:30N 57°41' E 009°13'716.2
2018-Oct-21 09:03N 57°44' E 009°25'115.9
2018-Oct-21 09:00N 57°45' E 009°27'816.3
2018-Oct-21 08:30N 57°46' E 009°42'716.5
2018-Oct-21 08:03N 57°47' E 009°55'116.4
2018-Oct-21 08:00N 57°47' E 009°57'816.0
2018-Oct-21 07:30N 57°47' E 010°12'716.1
2018-Oct-21 07:03N 57°48' E 010°25'116.0
2018-Oct-21 07:00N 57°48' E 010°27'816.2
2018-Oct-21 06:30N 57°48' E 010°42'614.5
2018-Oct-21 06:03N 57°45' E 010°52'113.3
2018-Oct-21 06:00N 57°44' E 010°53'714.6
2018-Oct-21 05:30N 57°39' E 011°03'817.8
2018-Oct-21 05:04N 57°34' E 011°14'117.9
2018-Oct-21 05:00N 57°33' E 011°16'917.4
2018-Oct-21 04:30N 57°27' E 011°27'817.7
2018-Oct-21 04:04N 57°20' E 011°32'117.7
2018-Oct-21 04:00N 57°19' E 011°32'917.9
2018-Oct-21 03:30N 57°10' E 011°37'817.7
2018-Oct-21 03:03N 57°03' E 011°42'117.9
2018-Oct-21 03:00N 57°02' E 011°43'917.5
2018-Oct-21 02:30N 56°54' E 011°48'817.3
2018-Oct-21 02:02N 56°46' E 011°53'116.7
2018-Oct-21 01:58N 56°45' E 011°53'817.7
2018-Oct-21 01:30N 56°38' E 011°46'917.8
2018-Oct-21 00:59N 56°30' E 011°37'917.6
2018-Oct-21 00:27N 56°22' E 011°28'817.5
2018-Oct-20 23:58N 56°15' E 011°21'817.6
2018-Oct-20 23:30N 56°08' E 011°13'1417.8
2018-Oct-20 22:42N 55°56' E 010°59'3115.2
2018-Oct-20 20:38N 55°24' E 010°60'216.2
2018-Oct-20 20:30N 55°23' E 011°02'714.7
2018-Oct-20 20:03N 55°16' E 011°04'111.8
2018-Oct-20 20:00N 55°16' E 011°05'611.4
2018-Oct-20 19:30N 55°10' E 011°01'816.7
2018-Oct-20 19:03N 55°03' E 010°60'116.8
2018-Oct-20 19:01N 55°02' E 010°60'816.9
2018-Oct-20 18:31N 54°55' E 010°52'817.4
2018-Oct-20 18:03N 54°47' E 010°49'117.9
2018-Oct-20 18:00N 54°46' E 010°49'715.0
2018-Oct-20 17:31N 54°39' E 010°52'816.7
2018-Oct-20 17:03N 54°36' E 011°04'117.4
2018-Oct-20 17:01N 54°36' E 011°05'816.8
2018-Oct-20 16:30N 54°34' E 011°19'817.2
2018-Oct-20 16:03N 54°30' E 011°31'117.0
2018-Oct-20 16:00N 54°30' E 011°32'816.9
2018-Oct-20 15:30N 54°26' E 011°45'816.7
2018-Oct-20 15:03N 54°26' E 011°58'117.1
2018-Oct-20 15:01N 54°26' E 011°60'1212.9
2018-Oct-20 14:03N 54°34' E 012°15'0 9.8
2018-Oct-20 14:00N 54°35' E 012°16'6716.1
2018-Oct-20 09:53N 55°03' E 013°60'616.5
2018-Oct-20 09:30N 55°07' E 014°09'2517.0
2018-Oct-20 08:01N 55°26' E 014°37'016.8
2018-Oct-20 08:00N 55°26' E 014°38'816.5
2018-Oct-20 07:31N 55°30' E 014°50'716.6
2018-Oct-20 07:03N 55°33' E 015°02'116.7
2018-Oct-20 07:01N 55°34' E 015°04'917.1
2018-Oct-20 06:31N 55°38' E 015°17'817.3
2018-Oct-20 06:03N 55°42' E 015°29'117.1
2018-Oct-20 06:01N 55°42' E 015°30'917.5
2018-Oct-20 05:31N 55°47' E 015°43'817.3
2018-Oct-20 05:03N 55°51' E 015°55'117.7
2018-Oct-20 05:01N 55°51' E 015°56'917.5
2018-Oct-20 04:30N 55°56' E 016°10'817.4
2018-Oct-20 04:03N 55°60' E 016°22'117.5
2018-Oct-20 04:00N 56°00' E 016°24'917.3
2018-Oct-20 03:31N 56°05' E 016°36'817.2
2018-Oct-20 03:03N 56°10' E 016°47'117.2
2018-Oct-20 03:01N 56°10' E 016°49'917.2
2018-Oct-20 02:31N 56°15' E 017°01'817.4
2018-Oct-20 02:03N 56°20' E 017°12'117.3
2018-Oct-20 02:01N 56°21' E 017°13'917.4
2018-Oct-20 01:31N 56°26' E 017°26'817.1
2018-Oct-20 01:03N 56°31' E 017°37'217.0
2018-Oct-20 00:56N 56°32' E 017°40'1117.1
2018-Oct-20 00:18N 56°38' E 017°56'617.2
2018-Oct-19 23:55N 56°42' E 018°05'716.9
2018-Oct-19 23:30N 56°46' E 018°16'153 3.2
2018-Oct-17 23:21N 58°43' E 021°20'516.2
2018-Oct-17 23:03N 58°48' E 021°21'116.3
2018-Oct-17 23:00N 58°49' E 021°21'915.8
2018-Oct-17 22:26N 58°58' E 021°23'616.1
2018-Oct-17 22:03N 59°03' E 021°30'116.3
2018-Oct-17 22:00N 59°04' E 021°31'816.1
2018-Oct-17 21:30N 59°10' E 021°41'716.5
2018-Oct-17 21:03N 59°14' E 021°52'116.7
2018-Oct-17 21:00N 59°15' E 021°53'816.7
2018-Oct-17 20:30N 59°20' E 022°06'716.3
2018-Oct-17 20:03N 59°25' E 022°18'116.4
2018-Oct-17 20:00N 59°25' E 022°19'816.3
2018-Oct-17 19:30N 59°30' E 022°32'715.8
2018-Oct-17 19:03N 59°32' E 022°45'115.5
2018-Oct-17 19:00N 59°32' E 022°46'815.5
2018-Oct-17 18:30N 59°35' E 023°01'715.8
2018-Oct-17 18:03N 59°37' E 023°15'115.8
2018-Oct-17 18:00N 59°37' E 023°16'815.8
2018-Oct-17 17:30N 59°39' E 023°31'715.6
2018-Oct-17 17:03N 59°41' E 023°44'115.6
2018-Oct-17 17:00N 59°41' E 023°46'815.6
2018-Oct-17 16:30N 59°44' E 024°01'716.0
2018-Oct-17 16:03N 59°46' E 024°14'116.0
2018-Oct-17 16:00N 59°46' E 024°16'816.0
2018-Oct-17 15:30N 59°48' E 024°31'716.0
2018-Oct-17 15:03N 59°50' E 024°45'115.7
2018-Oct-17 15:00N 59°50' E 024°47'1616.1
2018-Oct-17 14:00N 59°53' E 025°18'816.0
2018-Oct-17 13:30N 59°54' E 025°34'716.1
2018-Oct-17 13:03N 59°56' E 025°48'116.3
2018-Oct-17 13:00N 59°56' E 025°49'815.9
2018-Oct-17 12:30N 59°58' E 026°05'716.1
2018-Oct-17 12:03N 60°03' E 026°16'115.7
2018-Oct-17 12:00N 60°03' E 026°18'816.0
2018-Oct-17 11:30N 60°08' E 026°30'613.2
2018-Oct-17 11:03N 60°12' E 026°40'116.3
2018-Oct-17 11:00N 60°12' E 026°41'815.6
2018-Oct-17 10:30N 60°17' E 026°53'715.4
2018-Oct-17 10:03N 60°24' E 026°54'111.2
2018-Oct-17 10:00N 60°25' E 026°54'1 1.1
2018-Oct-17 09:29N 60°25' E 026°55'0 0.0
2018-Oct-17 09:02N 60°25' E 026°55'0 0.0
2018-Oct-17 08:59N 60°25' E 026°55'0 0.0
2018-Oct-17 08:29N 60°25' E 026°55'0 0.0
2018-Oct-17 08:02N 60°25' E 026°55'0 0.2
2018-Oct-17 07:59N 60°25' E 026°55'0 0.0
2018-Oct-17 07:29N 60°25' E 026°55'0 0.0
2018-Oct-17 07:02N 60°25' E 026°55'0 0.0
2018-Oct-17 07:00N 60°25' E 026°55'0 0.0
2018-Oct-17 06:29N 60°25' E 026°55'0 0.0
2018-Oct-17 06:02N 60°25' E 026°55'0 0.0
2018-Oct-17 05:59N 60°25' E 026°55'0 0.0
2018-Oct-17 05:29N 60°25' E 026°55'0 0.0
2018-Oct-17 05:02N 60°25' E 026°55'0 0.0
2018-Oct-17 04:59N 60°25' E 026°55'0 0.0
2018-Oct-17 04:30N 60°25' E 026°55'0 0.0
2018-Oct-17 04:02N 60°25' E 026°55'0 0.0
2018-Oct-17 04:00N 60°25' E 026°55'0 0.0
2018-Oct-17 03:29N 60°25' E 026°55'0 0.0
2018-Oct-17 03:02N 60°25' E 026°55'0 0.0
2018-Oct-17 02:59N 60°25' E 026°55'0 0.0
2018-Oct-17 02:29N 60°25' E 026°55'0 0.0
2018-Oct-17 02:02N 60°25' E 026°55'0 0.2
2018-Oct-17 01:59N 60°25' E 026°55'0 0.0
2018-Oct-17 01:29N 60°25' E 026°55'0 0.0
2018-Oct-17 01:02N 60°25' E 026°55'0 0.0
2018-Oct-17 00:59N 60°25' E 026°55'0 0.0
2018-Oct-17 00:29N 60°25' E 026°55'0 0.0
2018-Oct-17 00:02N 60°25' E 026°55'0 0.0
2018-Oct-16 23:59N 60°25' E 026°55'0 0.0
2018-Oct-16 23:29N 60°25' E 026°55'0 0.0
2018-Oct-16 23:03N 60°25' E 026°55'0 0.0
2018-Oct-16 23:00N 60°25' E 026°55'0 0.0
2018-Oct-16 22:29N 60°25' E 026°55'0 0.0
2018-Oct-16 22:02N 60°25' E 026°55'0 0.0
2018-Oct-16 21:59N 60°25' E 026°55'0 0.0
2018-Oct-16 21:29N 60°25' E 026°55'0 0.0
2018-Oct-16 21:03N 60°25' E 026°55'0 0.0
2018-Oct-16 21:00N 60°25' E 026°55'0 0.0
2018-Oct-16 20:29N 60°25' E 026°55'0 0.0
2018-Oct-16 20:02N 60°25' E 026°55'0 0.0
2018-Oct-16 19:59N 60°25' E 026°55'0 0.0
2018-Oct-16 19:29N 60°25' E 026°55'0 0.0
2018-Oct-16 19:02N 60°25' E 026°55'0 0.0
2018-Oct-16 18:59N 60°25' E 026°55'0 0.0
2018-Oct-16 18:29N 60°25' E 026°55'0 0.0
2018-Oct-16 18:02N 60°25' E 026°55'0 0.0
2018-Oct-16 17:59N 60°25' E 026°55'0 0.0
2018-Oct-16 17:29N 60°25' E 026°55'0 0.0
2018-Oct-16 17:02N 60°25' E 026°55'0 0.0
2018-Oct-16 16:59N 60°25' E 026°55'0 0.0
2018-Oct-16 16:29N 60°25' E 026°55'0 0.0
2018-Oct-16 16:02N 60°25' E 026°55'0 0.0
2018-Oct-16 15:59N 60°25' E 026°55'0 0.0
2018-Oct-16 15:29N 60°25' E 026°55'0 0.0
2018-Oct-16 15:02N 60°25' E 026°55'0 0.1
2018-Oct-16 14:59N 60°25' E 026°55'0 0.0
2018-Oct-16 14:29N 60°25' E 026°55'0 0.0
2018-Oct-16 13:59N 60°25' E 026°55'0 0.0
2018-Oct-16 13:29N 60°25' E 026°55'0 0.0
2018-Oct-16 13:02N 60°25' E 026°55'0 0.1
2018-Oct-16 12:59N 60°25' E 026°55'0 0.0
2018-Oct-16 12:29N 60°25' E 026°55'0 0.0
2018-Oct-16 12:02N 60°25' E 026°55'0 0.1
2018-Oct-16 11:59N 60°25' E 026°55'0 0.0
2018-Oct-16 11:30N 60°25' E 026°55'0 0.6
2018-Oct-16 11:04N 60°25' E 026°55'0 0.0
2018-Oct-16 11:00N 60°25' E 026°55'0 0.0
2018-Oct-16 10:25N 60°25' E 026°55'0 0.0
2018-Oct-16 10:01N 60°25' E 026°55'0 0.1
2018-Oct-16 09:58N 60°25' E 026°55'0 0.0
2018-Oct-16 09:28N 60°25' E 026°55'0 0.0
2018-Oct-16 09:03N 60°25' E 026°55'0 0.2
2018-Oct-16 09:00N 60°25' E 026°55'0 0.0
2018-Oct-16 08:28N 60°25' E 026°55'0 0.0
2018-Oct-16 08:01N 60°25' E 026°55'0 0.0
2018-Oct-16 07:58N 60°25' E 026°55'0 0.0
2018-Oct-16 07:28N 60°25' E 026°55'0 0.0
2018-Oct-16 07:01N 60°25' E 026°55'0 0.0
2018-Oct-16 06:58N 60°25' E 026°55'0 0.0
2018-Oct-16 06:28N 60°25' E 026°55'0 0.0
2018-Oct-16 06:01N 60°25' E 026°55'0 0.2
2018-Oct-16 05:58N 60°25' E 026°55'0 0.0
2018-Oct-16 05:28N 60°25' E 026°55'0 0.0
2018-Oct-16 05:01N 60°25' E 026°55'0 0.0
2018-Oct-16 04:58N 60°25' E 026°55'0 0.0
2018-Oct-16 04:28N 60°25' E 026°55'0 0.0
2018-Oct-16 04:01N 60°25' E 026°55'0 0.0
2018-Oct-16 03:58N 60°25' E 026°55'0 0.0
2018-Oct-16 03:28N 60°25' E 026°55'0 0.0
2018-Oct-16 03:01N 60°25' E 026°55'0 0.0
2018-Oct-16 02:58N 60°25' E 026°55'0 0.0
2018-Oct-16 02:28N 60°25' E 026°55'0 0.0
2018-Oct-16 02:01N 60°25' E 026°55'0 0.0
2018-Oct-16 01:58N 60°25' E 026°55'0 0.0
2018-Oct-16 01:30N 60°25' E 026°55'0 0.0
2018-Oct-16 01:01N 60°25' E 026°55'0 0.0
2018-Oct-16 00:58N 60°25' E 026°55'0 0.0
2018-Oct-16 00:28N 60°25' E 026°55'0 0.0
2018-Oct-16 00:01N 60°25' E 026°55'0 0.0
2018-Oct-15 23:55N 60°25' E 026°55'0 0.0
2018-Oct-15 23:28N 60°25' E 026°55'0 0.0
2018-Oct-15 23:01N 60°25' E 026°55'0 0.0
2018-Oct-15 22:58N 60°25' E 026°55'0 0.0
2018-Oct-15 22:28N 60°25' E 026°55'0 0.0
2018-Oct-15 22:01N 60°25' E 026°55'0 0.0
2018-Oct-15 21:58N 60°25' E 026°55'0 0.0
2018-Oct-15 21:28N 60°25' E 026°55'0 0.0
2018-Oct-15 21:01N 60°25' E 026°55'0 0.1
2018-Oct-15 20:58N 60°25' E 026°55'0 0.0
2018-Oct-15 20:28N 60°25' E 026°55'0 0.0
2018-Oct-15 20:01N 60°25' E 026°55'0 0.0
2018-Oct-15 19:58N 60°25' E 026°55'0 0.0
2018-Oct-15 19:28N 60°25' E 026°55'0 0.0
2018-Oct-15 19:02N 60°25' E 026°55'0 0.0
2018-Oct-15 18:59N 60°25' E 026°55'0 0.0
2018-Oct-15 18:28N 60°25' E 026°55'0 0.0
2018-Oct-15 18:02N 60°25' E 026°55'0 0.0
2018-Oct-15 17:55N 60°25' E 026°55'0 0.0
2018-Oct-15 17:28N 60°25' E 026°55'0 0.0
2018-Oct-15 17:01N 60°25' E 026°55'0 0.0
2018-Oct-15 16:58N 60°25' E 026°55'0 0.0
2018-Oct-15 16:28N 60°25' E 026°55'0 0.0
2018-Oct-15 16:03N 60°25' E 026°55'0 0.0
2018-Oct-15 15:58N 60°25' E 026°55'0 0.0
2018-Oct-15 15:28N 60°25' E 026°55'0 0.0
2018-Oct-15 15:01N 60°25' E 026°55'0 0.0
2018-Oct-15 14:58N 60°25' E 026°55'0 0.0
2018-Oct-15 14:28N 60°25' E 026°55'0 0.0
2018-Oct-15 13:58N 60°25' E 026°55'0 0.0
2018-Oct-15 13:28N 60°25' E 026°55'0 0.0
2018-Oct-15 13:01N 60°25' E 026°55'0 0.0
2018-Oct-15 12:58N 60°25' E 026°55'0 0.0
2018-Oct-15 12:28N 60°25' E 026°55'0 0.0
2018-Oct-15 12:01N 60°25' E 026°55'0 0.0
2018-Oct-15 11:58N 60°25' E 026°55'0 0.0
2018-Oct-15 11:28N 60°25' E 026°55'0 0.0
2018-Oct-15 11:01N 60°25' E 026°55'0 0.0
2018-Oct-15 10:58N 60°25' E 026°55'0 0.0
2018-Oct-15 10:28N 60°25' E 026°55'0 0.0
2018-Oct-15 10:01N 60°25' E 026°55'0 0.0
2018-Oct-15 09:58N 60°25' E 026°55'0 0.0
2018-Oct-15 09:28N 60°25' E 026°55'0 0.0
2018-Oct-15 09:01N 60°25' E 026°55'0 0.0
2018-Oct-15 08:58N 60°25' E 026°55'0 0.0
2018-Oct-15 08:28N 60°25' E 026°55'0 0.0
2018-Oct-15 08:01N 60°25' E 026°55'0 0.0
2018-Oct-15 07:58N 60°25' E 026°55'0 0.0
2018-Oct-15 07:28N 60°25' E 026°55'0 0.0
2018-Oct-15 07:01N 60°25' E 026°55'0 0.0
2018-Oct-15 06:58N 60°25' E 026°55'0 0.0
2018-Oct-15 06:25N 60°25' E 026°55'0 0.0
2018-Oct-15 06:01N 60°25' E 026°55'0 0.0
2018-Oct-15 05:58N 60°25' E 026°55'0 0.0
2018-Oct-15 05:30N 60°25' E 026°55'0 0.0
2018-Oct-15 05:02N 60°25' E 026°55'0 0.0
2018-Oct-15 04:58N 60°25' E 026°55'0 0.0
2018-Oct-15 04:28N 60°25' E 026°55'0 0.0
2018-Oct-15 04:02N 60°25' E 026°55'0 0.0
2018-Oct-15 03:59N 60°25' E 026°55'0 0.0
2018-Oct-15 03:30N 60°25' E 026°55'0 0.0
2018-Oct-15 03:01N 60°25' E 026°55'0 0.0
2018-Oct-15 02:58N 60°25' E 026°55'0 0.0
2018-Oct-15 02:28N 60°25' E 026°55'0 0.0
2018-Oct-15 02:01N 60°25' E 026°55'0 0.0
2018-Oct-15 01:59N 60°25' E 026°55'0 0.2
2018-Oct-15 01:30N 60°25' E 026°55'2 4.4
2018-Oct-15 01:03N 60°24' E 026°52'114.0
2018-Oct-15 01:00N 60°24' E 026°51'815.6
2018-Oct-15 00:30N 60°20' E 026°37'715.6
2018-Oct-15 00:03N 60°15' E 026°26'112.1
2018-Oct-15 00:00N 60°15' E 026°26'4 8.3
2018-Oct-14 23:30N 60°11' E 026°22'4 9.4
2018-Oct-14 23:03N 60°07' E 026°17'1 9.4
2018-Oct-14 23:00N 60°07' E 026°16'812.2
2018-Oct-14 22:23N 60°01' E 026°07'515.4
2018-Oct-14 22:03N 59°57' E 026°01'115.3
2018-Oct-14 22:00N 59°57' E 025°60'714.6
2018-Oct-14 21:30N 59°52' E 025°48'715.8
2018-Oct-14 21:03N 59°50' E 025°35'115.9
2018-Oct-14 21:00N 59°50' E 025°33'815.8
2018-Oct-14 20:30N 59°48' E 025°18'715.8
2018-Oct-14 20:03N 59°47' E 025°04'115.7
2018-Oct-14 20:00N 59°47' E 025°02'815.8
2018-Oct-14 19:30N 59°46' E 024°46'716.2
2018-Oct-14 19:03N 59°45' E 024°32'113.8
2018-Oct-14 19:00N 59°45' E 024°31'918.3
2018-Oct-14 18:30N 59°42' E 024°13'818.2
2018-Oct-14 18:03N 59°40' E 023°58'118.3
2018-Oct-14 18:00N 59°40' E 023°56'918.5
2018-Oct-14 17:30N 59°36' E 023°39'818.7
2018-Oct-14 17:03N 59°34' E 023°23'118.6
2018-Oct-14 17:00N 59°34' E 023°22'918.5
2018-Oct-14 16:30N 59°31' E 023°04'818.5
2018-Oct-14 16:03N 59°28' E 022°49'118.3
2018-Oct-14 16:00N 59°28' E 022°47'918.0
2018-Oct-14 15:30N 59°24' E 022°31'818.3
2018-Oct-14 15:03N 59°18' E 022°19'118.1
2018-Oct-14 15:00N 59°18' E 022°18'918.2
2018-Oct-14 14:30N 59°12' E 022°04'918.5
2018-Oct-14 14:00N 59°06' E 021°50'1018.3
2018-Oct-14 13:28N 58°59' E 021°37'818.7
2018-Oct-14 13:03N 58°52' E 021°29'118.7
2018-Oct-14 13:00N 58°52' E 021°28'1018.6
2018-Oct-14 12:29N 58°43' E 021°17'818.7
2018-Oct-14 12:03N 58°37' E 021°09'118.7
2018-Oct-14 12:00N 58°36' E 021°08'918.6
2018-Oct-14 11:30N 58°29' E 020°58'818.5
2018-Oct-14 11:03N 58°22' E 020°49'118.5
2018-Oct-14 11:00N 58°21' E 020°48'918.6
2018-Oct-14 10:30N 58°13' E 020°39'5618.5
2018-Oct-14 07:28N 57°30' E 019°30'718.6
2018-Oct-14 07:03N 57°24' E 019°21'318.6
2018-Oct-14 06:53N 57°22' E 019°18'718.5
2018-Oct-14 06:30N 57°16' E 019°10'818.5
2018-Oct-14 06:03N 57°09' E 019°00'118.4
2018-Oct-14 06:00N 57°09' E 018°59'918.7
2018-Oct-14 05:30N 57°01' E 018°49'818.5
2018-Oct-14 05:03N 56°55' E 018°40'218.5
2018-Oct-14 04:57N 56°53' E 018°38'818.4
2018-Oct-14 04:30N 56°47' E 018°28'818.6
2018-Oct-14 04:03N 56°42' E 018°16'118.5
2018-Oct-14 04:00N 56°41' E 018°14'918.5
2018-Oct-14 03:30N 56°36' E 018°01'818.5
2018-Oct-14 03:03N 56°30' E 017°49'119.0
2018-Oct-14 03:00N 56°30' E 017°48'918.7
2018-Oct-14 02:30N 56°24' E 017°35'818.6
2018-Oct-14 02:03N 56°18' E 017°23'118.3
2018-Oct-14 02:00N 56°18' E 017°22'918.3
2018-Oct-14 01:30N 56°13' E 017°08'818.5
2018-Oct-14 01:03N 56°08' E 016°56'118.6
2018-Oct-14 01:00N 56°07' E 016°55'918.5
2018-Oct-14 00:30N 56°02' E 016°42'818.3
2018-Oct-14 00:03N 55°57' E 016°30'118.5
2018-Oct-14 00:00N 55°57' E 016°28'918.4
2018-Oct-13 23:30N 55°52' E 016°14'818.5
2018-Oct-13 23:03N 55°48' E 016°01'118.6
2018-Oct-13 23:00N 55°47' E 016°00'918.5
2018-Oct-13 22:30N 55°42' E 015°46'818.5
2018-Oct-13 22:03N 55°38' E 015°33'118.4
2018-Oct-13 22:00N 55°38' E 015°32'918.3
2018-Oct-13 21:30N 55°34' E 015°17'818.3
2018-Oct-13 21:03N 55°30' E 015°04'118.4
2018-Oct-13 21:00N 55°30' E 015°03'918.7
2018-Oct-13 20:30N 55°25' E 014°48'818.4
2018-Oct-13 20:03N 55°21' E 014°36'118.9
2018-Oct-13 20:00N 55°20' E 014°34'918.8
2018-Oct-13 19:30N 55°13' E 014°24'818.5
2018-Oct-13 19:03N 55°06' E 014°16'118.4
2018-Oct-13 19:00N 55°06' E 014°15'917.8
2018-Oct-13 18:30N 55°00' E 014°02'1118.6
2018-Oct-13 17:56N 54°57' E 013°44'3717.9
2018-Oct-13 15:51N 54°45' E 012°43'717.6
2018-Oct-13 15:28N 54°42' E 012°33'717.6
2018-Oct-13 15:03N 54°38' E 012°22'117.4
2018-Oct-13 15:00N 54°37' E 012°21'1417.3
2018-Oct-13 14:10N 54°25' E 012°09'317.4
2018-Oct-13 14:00N 54°24' E 012°05'917.2
2018-Oct-13 13:30N 54°25' E 011°50'816.8
2018-Oct-13 13:03N 54°28' E 011°38'116.8
2018-Oct-13 13:00N 54°28' E 011°36'816.5
2018-Oct-13 12:30N 54°32' E 011°24'716.3
2018-Oct-13 12:03N 54°34' E 011°12'116.6
2018-Oct-13 12:00N 54°35' E 011°11'816.3
2018-Oct-13 11:30N 54°36' E 010°57'716.6
2018-Oct-13 11:03N 54°40' E 010°46'115.4
2018-Oct-13 11:00N 54°41' E 010°46'511.0
2018-Oct-13 10:31N 54°46' E 010°49'714.8
2018-Oct-13 10:04N 54°53' E 010°50'114.6
2018-Oct-13 10:01N 54°54' E 010°51'714.0
2018-Oct-13 09:31N 54°59' E 010°59'715.5
2018-Oct-13 09:04N 55°05' E 011°02'115.8
2018-Oct-13 09:01N 55°06' E 011°02'815.3
2018-Oct-13 08:31N 55°14' E 011°06'716.1
2018-Oct-13 08:03N 55°20' E 011°02'115.7
2018-Oct-13 08:01N 55°21' E 011°02'4613.4
2018-Oct-13 04:33N 56°07' E 011°10'1214.4
2018-Oct-13 03:44N 56°17' E 011°22'1114.6
2018-Oct-13 02:58N 56°27' E 011°32'714.8
2018-Oct-13 02:31N 56°32' E 011°38'714.8
2018-Oct-13 02:03N 56°38' E 011°45'114.8
2018-Oct-13 02:01N 56°39' E 011°46'714.3
2018-Oct-13 01:31N 56°45' E 011°52'714.9
2018-Oct-13 01:04N 56°52' E 011°48'114.9
2018-Oct-13 01:00N 56°52' E 011°48'714.9
2018-Oct-13 00:31N 56°59' E 011°43'715.1
2018-Oct-13 00:04N 57°05' E 011°38'114.9
2018-Oct-13 00:00N 57°06' E 011°37'714.4
2018-Oct-12 23:31N 57°13' E 011°34'714.8
2018-Oct-12 23:04N 57°19' E 011°30'114.8
2018-Oct-12 23:01N 57°20' E 011°29'715.0
2018-Oct-12 22:31N 57°27' E 011°25'715.1
2018-Oct-12 22:04N 57°32' E 011°16'115.2
2018-Oct-12 22:01N 57°32' E 011°15'815.1
2018-Oct-12 21:31N 57°38' E 011°05'715.2
2018-Oct-12 21:04N 57°42' E 010°55'115.6
2018-Oct-12 21:01N 57°43' E 010°54'714.7
2018-Oct-12 20:31N 57°46' E 010°42'715.5
2018-Oct-12 20:03N 57°46' E 010°29'115.8
2018-Oct-12 20:00N 57°46' E 010°28'815.5
2018-Oct-12 19:31N 57°46' E 010°13'715.5
2018-Oct-12 19:04N 57°45' E 010°00'115.7
2018-Oct-12 19:01N 57°45' E 009°59'816.1
2018-Oct-12 18:30N 57°45' E 009°43'716.1
2018-Oct-12 18:04N 57°44' E 009°30'116.6
2018-Oct-12 18:00N 57°44' E 009°28'816.3
2018-Oct-12 17:30N 57°41' E 009°14'716.2
2018-Oct-12 17:03N 57°37' E 009°02'116.2
2018-Oct-12 17:00N 57°37' E 009°01'816.3
2018-Oct-12 16:30N 57°33' E 008°48'716.5
2018-Oct-12 16:03N 57°28' E 008°37'116.7
2018-Oct-12 16:00N 57°28' E 008°35'816.7
2018-Oct-12 15:30N 57°23' E 008°23'816.7
2018-Oct-12 15:02N 57°18' E 008°12'116.8
2018-Oct-12 15:00N 57°17' E 008°11'816.5
2018-Oct-12 14:30N 57°11' E 008°01'816.5
2018-Oct-12 14:00N 57°04' E 007°53'816.6
2018-Oct-12 13:30N 56°57' E 007°46'716.4
2018-Oct-12 13:03N 56°50' E 007°40'116.4
2018-Oct-12 13:01N 56°50' E 007°40'816.5
2018-Oct-12 12:30N 56°42' E 007°33'816.4
2018-Oct-12 12:03N 56°35' E 007°27'116.5
2018-Oct-12 12:00N 56°35' E 007°26'816.3
2018-Oct-12 11:30N 56°27' E 007°19'716.3
2018-Oct-12 11:03N 56°21' E 007°14'116.3
2018-Oct-12 11:00N 56°20' E 007°13'816.3
2018-Oct-12 10:30N 56°13' E 007°06'1116.4
2018-Oct-12 09:48N 56°03' E 006°56'15817.5
2018-Oct-12 00:44N 53°41' E 004°53'517.5
2018-Oct-12 00:27N 53°37' E 004°50'717.4
2018-Oct-12 00:04N 53°30' E 004°46'117.3
2018-Oct-12 00:00N 53°30' E 004°45'917.3
2018-Oct-11 23:31N 53°22' E 004°39'817.2
2018-Oct-11 23:04N 53°15' E 004°34'117.4
2018-Oct-11 23:01N 53°14' E 004°33'917.2
2018-Oct-11 22:31N 53°06' E 004°27'817.0
2018-Oct-11 22:04N 52°60' E 004°21'116.9
2018-Oct-11 22:01N 52°59' E 004°20'816.9
2018-Oct-11 21:30N 52°51' E 004°14'817.1
2018-Oct-11 21:04N 52°45' E 004°06'117.2
2018-Oct-11 21:01N 52°45' E 004°05'917.2
2018-Oct-11 20:31N 52°39' E 003°55'817.4
2018-Oct-11 20:04N 52°32' E 003°47'117.8
2018-Oct-11 20:01N 52°32' E 003°46'917.7
2018-Oct-11 19:30N 52°25' E 003°37'818.0
2018-Oct-11 19:03N 52°20' E 003°27'118.1
2018-Oct-11 19:01N 52°19' E 003°26'918.2
2018-Oct-11 18:29N 52°12' E 003°15'818.5
2018-Oct-11 18:03N 52°06' E 003°06'118.6
2018-Oct-11 18:00N 52°06' E 003°05'1918.7
2018-Oct-11 17:00N 51°53' E 002°42'713.9
2018-Oct-11 16:31N 51°52' E 002°31'817.5
2018-Oct-11 16:03N 51°53' E 002°19'118.2
2018-Oct-11 16:01N 51°53' E 002°17'918.7
2018-Oct-11 15:31N 51°51' E 002°02'818.6
2018-Oct-11 15:04N 51°48' E 001°49'117.5
2018-Oct-11 15:01N 51°49' E 001°48'815.1
2018-Oct-11 14:30N 51°52' E 001°37'5 9.7
2018-Oct-11 14:01N 51°56' E 001°33'815.8
2018-Oct-11 13:30N 51°55' E 001°20'3 5.4
2018-Oct-11 13:02N 51°58' E 001°18'0 0.3
2018-Oct-11 12:59N 51°58' E 001°18'0 0.0
2018-Oct-11 12:29N 51°58' E 001°18'0 0.0
2018-Oct-11 12:02N 51°58' E 001°18'  

Dump ship's entire track history